createdAt,value
2022-08-05T00:00:23.182Z,5.03
2022-08-05T00:02:52.477Z,6.50
2022-08-05T00:06:02.583Z,6.88
2022-08-05T00:08:32.769Z,6.38
2022-08-05T00:11:00.915Z,6.57
2022-08-05T00:13:39.620Z,6.30
2022-08-05T00:16:14.505Z,5.60
2022-08-05T00:18:48.223Z,8.10
2022-08-05T00:21:17.576Z,9.27
2022-08-05T00:23:53.649Z,17.75
2022-08-05T00:26:35.491Z,17.63
2022-08-05T00:29:02.721Z,10.57
2022-08-05T00:31:54.085Z,12.25
2022-08-05T00:34:56.204Z,18.60
2022-08-05T00:37:11.128Z,11.85
2022-08-05T00:39:44.572Z,13.90
2022-08-05T00:42:38.523Z,16.00
2022-08-05T00:45:11.625Z,10.23
2022-08-05T00:47:57.229Z,15.98
2022-08-05T00:50:29.362Z,14.65
2022-08-05T00:52:56.591Z,30.40
2022-08-05T00:55:34.172Z,34.20
2022-08-05T00:58:12.014Z,23.23
2022-08-05T01:00:40.468Z,15.68
2022-08-05T01:03:15.000Z,18.42
2022-08-05T01:05:54.797Z,18.70
2022-08-05T01:08:30.676Z,12.50
2022-08-05T01:11:22.451Z,17.55
2022-08-05T01:14:02.779Z,16.30
2022-08-05T01:16:44.225Z,13.57
2022-08-05T01:19:56.854Z,10.73
2022-08-05T01:22:41.873Z,7.60
2022-08-05T01:25:40.959Z,8.20
2022-08-05T01:28:23.891Z,7.82
2022-08-05T01:30:57.243Z,6.03
2022-08-05T01:33:35.460Z,6.40
2022-08-05T01:36:13.061Z,7.13
2022-08-05T01:38:48.487Z,11.07
2022-08-05T01:41:22.072Z,9.60
2022-08-05T01:43:51.112Z,11.00
2022-08-05T01:46:42.849Z,11.00
2022-08-05T01:49:23.789Z,9.07
2022-08-05T01:52:01.643Z,10.07
2022-08-05T01:54:58.431Z,7.78
2022-08-05T01:58:12.867Z,7.47
2022-08-05T02:00:19.166Z,8.48
2022-08-05T02:02:55.423Z,8.68
2022-08-05T02:05:29.220Z,6.90
2022-08-05T02:08:01.435Z,7.68
2022-08-05T02:10:37.937Z,9.27
2022-08-05T02:13:28.736Z,7.82
2022-08-05T02:16:24.255Z,7.18
2022-08-05T02:19:47.283Z,7.22
2022-08-05T02:22:26.535Z,6.70
2022-08-05T02:25:12.712Z,7.20
2022-08-05T02:27:59.319Z,5.97
2022-08-05T02:30:34.623Z,6.85
2022-08-05T02:33:03.559Z,5.03
2022-08-05T02:35:37.728Z,5.60
2022-08-05T02:38:19.540Z,5.53
2022-08-05T02:40:54.477Z,6.00
2022-08-05T02:43:24.814Z,6.22
2022-08-05T02:45:53.992Z,6.15
2022-08-05T02:48:29.516Z,6.22
2022-08-05T02:51:06.730Z,6.05
2022-08-05T02:53:40.470Z,6.43
2022-08-05T02:56:16.044Z,6.07
2022-08-05T02:58:51.209Z,6.22
2022-08-05T03:01:25.511Z,6.30
2022-08-05T03:04:02.733Z,6.63
2022-08-05T03:06:54.923Z,6.75
2022-08-05T03:09:27.213Z,6.50
2022-08-05T03:12:05.920Z,6.95
2022-08-05T03:14:33.154Z,6.20
2022-08-05T03:17:00.849Z,6.55
2022-08-05T03:19:33.793Z,6.88
2022-08-05T03:22:01.573Z,6.90
2022-08-05T03:24:30.958Z,5.85
2022-08-05T03:26:59.599Z,5.95
2022-08-05T03:29:45.551Z,5.20
2022-08-05T03:32:15.888Z,5.85
2022-08-05T03:34:50.560Z,5.70
2022-08-05T03:37:22.795Z,5.97
2022-08-05T03:39:58.927Z,5.97
2022-08-05T03:42:29.062Z,6.55
2022-08-05T03:45:01.498Z,6.90
2022-08-05T03:47:30.318Z,7.45
2022-08-05T03:49:58.196Z,6.65
2022-08-05T03:52:37.708Z,5.75
2022-08-05T03:56:05.119Z,5.72
2022-08-05T03:58:27.197Z,6.50
2022-08-05T04:01:00.361Z,5.95
2022-08-05T04:03:29.528Z,6.38
2022-08-05T04:05:59.164Z,6.18
2022-08-05T04:08:36.820Z,6.93
2022-08-05T04:11:08.687Z,6.18
2022-08-05T04:13:51.222Z,6.57
2022-08-05T04:16:25.359Z,5.80
2022-08-05T04:19:00.324Z,6.22
2022-08-05T04:22:09.205Z,6.22
2022-08-05T04:24:19.653Z,6.80
2022-08-05T04:26:50.480Z,7.20
2022-08-05T04:29:17.674Z,7.00
2022-08-05T04:31:45.230Z,6.80
2022-08-05T04:34:24.484Z,7.00
2022-08-05T04:37:03.123Z,7.85
2022-08-05T04:39:31.293Z,8.13
2022-08-05T04:42:00.277Z,6.85
2022-08-05T04:44:30.929Z,7.32
2022-08-05T04:46:59.544Z,7.25
2022-08-05T04:49:38.619Z,7.65
2022-08-05T04:52:15.893Z,7.35
2022-08-05T04:54:42.910Z,6.93
2022-08-05T04:57:10.593Z,7.00
2022-08-05T04:59:38.994Z,6.50
2022-08-05T05:02:41.330Z,6.25
2022-08-05T05:05:02.365Z,6.72
2022-08-05T05:07:32.291Z,6.75
2022-08-05T05:10:02.314Z,5.35
2022-08-05T05:12:30.296Z,6.30
2022-08-05T05:14:57.419Z,5.85
2022-08-05T05:17:55.547Z,6.07
2022-08-05T05:20:14.047Z,6.03
2022-08-05T05:22:43.941Z,5.82
2022-08-05T05:25:16.374Z,5.90
2022-08-05T05:27:53.795Z,6.05
2022-08-05T05:30:30.737Z,5.68
2022-08-05T05:33:16.302Z,5.53
2022-08-05T05:35:48.340Z,5.80
2022-08-05T05:38:22.715Z,6.90
2022-08-05T05:40:56.905Z,5.82
2022-08-05T05:43:56.420Z,5.45
2022-08-05T05:46:16.325Z,5.63
2022-08-05T05:48:48.138Z,5.35
2022-08-05T05:51:28.062Z,5.18
2022-08-05T05:53:59.747Z,5.25
2022-08-05T05:56:34.447Z,5.00
2022-08-05T05:59:06.018Z,4.95
2022-08-05T06:01:39.763Z,5.45
2022-08-05T06:04:12.966Z,5.50
2022-08-05T06:06:46.603Z,5.38
2022-08-05T06:09:25.899Z,5.13
2022-08-05T06:12:04.030Z,5.95
2022-08-05T06:14:32.386Z,6.72
2022-08-05T06:17:02.210Z,6.47
2022-08-05T06:19:57.220Z,6.28
2022-08-05T06:22:29.829Z,6.13
2022-08-05T06:24:58.008Z,7.07
2022-08-05T06:28:11.314Z,7.57
2022-08-05T06:30:19.889Z,7.40
2022-08-05T06:32:50.815Z,8.05
2022-08-05T06:36:03.963Z,6.25
2022-08-05T06:38:10.075Z,6.90
2022-08-05T06:40:44.621Z,6.72
2022-08-05T06:43:58.763Z,6.40
2022-08-05T06:46:03.723Z,5.60
2022-08-05T06:48:53.518Z,6.45
2022-08-05T06:51:30.084Z,6.00
2022-08-05T06:54:04.086Z,6.10
2022-08-05T06:56:34.484Z,6.47
2022-08-05T06:59:08.473Z,5.88
2022-08-05T07:01:41.666Z,6.50
2022-08-05T07:04:10.511Z,6.47
2022-08-05T07:06:37.784Z,6.32
2022-08-05T07:09:05.981Z,6.32
2022-08-05T07:11:37.104Z,6.07
2022-08-05T07:14:29.972Z,5.80
2022-08-05T07:17:59.877Z,6.72
2022-08-05T07:22:42.018Z,5.75
2022-08-05T07:25:22.481Z,5.90
2022-08-05T07:27:58.853Z,5.78
2022-08-05T07:30:38.486Z,5.53
2022-08-05T07:33:10.562Z,6.78
2022-08-05T07:36:04.715Z,6.72
2022-08-05T07:38:34.803Z,5.70
2022-08-05T07:42:07.172Z,5.13
2022-08-05T07:43:56.177Z,5.63
2022-08-05T07:46:26.073Z,4.72
2022-08-05T07:49:02.503Z,4.60
2022-08-05T07:51:48.663Z,4.65
2022-08-05T07:54:26.237Z,5.72
2022-08-05T07:57:13.740Z,5.07
2022-08-05T07:59:42.198Z,4.68
2022-08-05T08:02:15.758Z,4.30
2022-08-05T08:04:46.227Z,4.60
2022-08-05T08:07:14.972Z,4.25
2022-08-05T08:09:43.776Z,4.50
2022-08-05T08:12:33.476Z,4.18
2022-08-05T08:15:02.627Z,4.65
2022-08-05T08:17:31.656Z,6.20
2022-08-05T08:20:23.479Z,5.55
2022-08-05T08:22:56.870Z,4.43
2022-08-05T08:25:26.800Z,4.57
2022-08-05T08:28:18.752Z,4.80
2022-08-05T08:31:00.739Z,4.85
2022-08-05T08:33:27.974Z,4.75
2022-08-05T08:36:18.407Z,5.30
2022-08-05T08:38:42.965Z,4.63
2022-08-05T08:41:26.128Z,4.55
2022-08-05T08:45:18.519Z,4.28
2022-08-05T08:47:21.726Z,4.60
2022-08-05T08:50:07.615Z,5.32
2022-08-05T08:52:47.359Z,4.68
2022-08-05T08:55:31.941Z,4.50
2022-08-05T08:58:09.293Z,4.82
2022-08-05T09:00:36.964Z,4.45
2022-08-05T09:03:08.130Z,4.18
2022-08-05T09:05:38.951Z,4.32
2022-08-05T09:08:27.289Z,4.85
2022-08-05T09:10:59.013Z,4.63
2022-08-05T09:13:31.512Z,4.00
2022-08-05T09:16:00.251Z,4.05
2022-08-05T09:18:28.225Z,4.60
2022-08-05T09:20:57.576Z,5.10
2022-08-05T09:23:28.805Z,4.38
2022-08-05T09:26:25.151Z,4.25
2022-08-05T09:29:05.206Z,4.57
2022-08-05T09:32:41.969Z,4.22
2022-08-05T09:34:21.032Z,4.25
2022-08-05T09:36:55.885Z,3.90
2022-08-05T09:39:41.518Z,4.47
2022-08-05T09:44:56.461Z,3.97
2022-08-05T09:47:36.501Z,4.38
2022-08-05T09:50:37.427Z,3.30
2022-08-05T09:53:06.339Z,3.42
2022-08-05T09:55:56.451Z,3.28
2022-08-05T09:58:25.233Z,3.25
2022-08-05T10:01:01.984Z,3.47
2022-08-05T10:03:58.500Z,3.70
2022-08-05T10:06:28.384Z,3.38
2022-08-05T10:08:57.062Z,3.78
2022-08-05T10:11:24.375Z,3.85
2022-08-05T10:13:59.086Z,3.95
2022-08-05T10:16:41.712Z,3.92
2022-08-05T10:19:23.852Z,3.78
2022-08-05T10:21:59.747Z,3.67
2022-08-05T10:24:28.710Z,3.28
2022-08-05T10:27:00.185Z,3.38
2022-08-05T10:30:06.608Z,3.70
2022-08-05T10:32:52.647Z,4.00
2022-08-05T10:35:06.365Z,4.07
2022-08-05T10:37:37.229Z,4.00
2022-08-05T10:40:44.978Z,3.92
2022-08-05T10:43:35.861Z,3.45
2022-08-05T10:46:09.120Z,3.28
2022-08-05T10:48:58.063Z,3.83
2022-08-05T10:51:53.227Z,4.25
2022-08-05T10:54:56.679Z,3.20
2022-08-05T10:57:31.763Z,3.85
2022-08-05T11:00:20.452Z,3.20
2022-08-05T11:03:23.512Z,3.20
2022-08-05T11:06:15.974Z,3.40
2022-08-05T11:09:16.399Z,3.38
2022-08-05T11:11:52.382Z,3.17
2022-08-05T11:15:01.424Z,2.55
2022-08-05T11:17:57.369Z,2.90
2022-08-05T11:20:41.708Z,3.10
2022-08-05T11:23:33.444Z,2.90
2022-08-05T11:26:28.671Z,3.08
2022-08-05T11:29:11.917Z,2.92
2022-08-05T11:31:57.405Z,3.17
2022-08-05T11:34:51.168Z,2.83
2022-08-05T11:38:30.623Z,3.42
2022-08-05T11:41:34.503Z,3.13
2022-08-05T11:44:07.261Z,3.08
2022-08-05T11:46:58.569Z,3.38
2022-08-05T11:49:39.031Z,3.15
2022-08-05T11:52:11.338Z,3.17
2022-08-05T11:54:41.297Z,2.83
2022-08-05T11:57:39.397Z,3.17
2022-08-05T11:59:56.815Z,3.22
2022-08-05T12:02:31.264Z,3.10
2022-08-05T12:05:06.787Z,2.70
2022-08-05T12:08:08.585Z,3.70
2022-08-05T12:10:38.552Z,3.42
2022-08-05T12:13:28.330Z,3.47
2022-08-05T12:16:18.836Z,3.50
2022-08-05T12:18:49.524Z,2.80
2022-08-05T12:21:29.881Z,3.78
2022-08-05T12:24:07.086Z,4.05
2022-08-05T12:26:40.899Z,3.58
2022-08-05T12:29:22.519Z,3.33
2022-08-05T12:31:57.046Z,3.22
2022-08-05T12:34:37.163Z,3.30
2022-08-05T12:37:17.379Z,2.85
2022-08-05T12:39:51.784Z,3.05
2022-08-05T12:42:25.449Z,3.20
2022-08-05T12:44:52.817Z,3.17
2022-08-05T12:47:31.169Z,3.15
2022-08-05T12:50:03.835Z,2.97
2022-08-05T12:52:39.425Z,2.95
2022-08-05T12:55:22.903Z,3.42
2022-08-05T12:58:48.951Z,3.13
2022-08-05T13:02:00.627Z,3.20
2022-08-05T13:03:42.902Z,3.33
2022-08-05T13:06:16.184Z,3.20
2022-08-05T13:08:52.371Z,3.42
2022-08-05T13:12:01.829Z,3.22
2022-08-05T13:14:35.950Z,3.30
2022-08-05T13:17:10.027Z,2.92
2022-08-05T13:19:40.411Z,4.07
2022-08-05T13:22:28.437Z,3.20
2022-08-05T13:25:05.164Z,3.35
2022-08-05T13:27:39.063Z,2.67
2022-08-05T13:30:33.560Z,2.92
2022-08-05T13:33:01.244Z,2.88
2022-08-05T13:35:43.225Z,3.17
2022-08-05T13:38:28.328Z,3.00
2022-08-05T13:41:00.081Z,2.85
2022-08-05T13:43:44.496Z,2.67
2022-08-05T13:46:16.223Z,2.90
2022-08-05T13:48:58.155Z,3.20
2022-08-05T13:51:40.085Z,3.05
2022-08-05T13:54:12.247Z,2.88
2022-08-05T13:56:45.237Z,2.90
2022-08-05T13:59:23.990Z,3.17
2022-08-05T14:01:57.489Z,3.20
2022-08-05T14:04:51.433Z,2.85
2022-08-05T14:07:26.439Z,3.00
2022-08-05T14:10:18.750Z,3.78
2022-08-05T14:12:48.626Z,2.83
2022-08-05T14:16:05.045Z,3.70
2022-08-05T14:18:04.999Z,2.85
2022-08-05T14:20:32.263Z,3.25
2022-08-05T14:23:00.286Z,3.05
2022-08-05T14:25:30.238Z,2.92
2022-08-05T14:27:58.380Z,2.85
2022-08-05T14:30:26.437Z,3.95
2022-08-05T14:32:55.030Z,3.20
2022-08-05T14:35:24.010Z,3.10
2022-08-05T14:38:05.309Z,3.03
2022-08-05T14:40:32.271Z,2.70
2022-08-05T14:43:01.318Z,2.97
2022-08-05T14:45:28.660Z,2.90
2022-08-05T14:48:03.393Z,2.60
2022-08-05T14:50:38.902Z,3.22
2022-08-05T14:53:08.458Z,2.97
2022-08-05T14:55:39.437Z,3.35
2022-08-05T14:58:11.585Z,3.08
2022-08-05T15:00:58.262Z,3.25
2022-08-05T15:03:33.909Z,3.65
2022-08-05T15:06:15.432Z,3.35
2022-08-05T15:08:59.293Z,2.88
2022-08-05T15:11:53.121Z,3.17
2022-08-05T15:14:35.794Z,2.50
2022-08-05T15:17:44.678Z,2.55
2022-08-05T15:19:59.104Z,3.03
2022-08-05T15:22:26.962Z,3.35
2022-08-05T15:24:59.538Z,2.95
2022-08-05T15:27:32.269Z,3.03
2022-08-05T15:32:31.920Z,2.67
2022-08-05T15:34:59.242Z,2.80
2022-08-05T15:38:08.474Z,3.30
2022-08-05T15:41:00.503Z,3.40
2022-08-05T15:43:12.526Z,3.28
2022-08-05T15:45:46.915Z,3.20
2022-08-05T15:48:15.689Z,2.90
2022-08-05T15:50:43.639Z,2.90
2022-08-05T15:53:14.417Z,2.88
2022-08-05T15:56:03.072Z,2.97
2022-08-05T15:58:35.443Z,2.95
2022-08-05T16:01:16.059Z,2.63
2022-08-05T16:03:50.497Z,3.00
2022-08-05T16:06:22.737Z,3.20
2022-08-05T16:08:53.613Z,2.65
2022-08-05T16:11:42.493Z,2.72
2022-08-05T16:14:16.945Z,3.50
2022-08-05T16:16:46.320Z,3.70
2022-08-05T16:19:25.278Z,3.72
2022-08-05T16:22:03.000Z,3.40
2022-08-05T16:24:39.879Z,2.95
2022-08-05T16:27:10.025Z,3.08
2022-08-05T16:29:50.291Z,2.97
2022-08-05T16:32:28.453Z,3.13
2022-08-05T16:34:58.847Z,3.33
2022-08-05T16:38:03.529Z,3.85
2022-08-05T16:40:28.869Z,3.58
2022-08-05T16:42:56.820Z,5.13
2022-08-05T16:46:05.101Z,4.80
2022-08-05T16:48:12.042Z,6.07
2022-08-05T16:50:54.594Z,4.10
2022-08-05T16:53:32.185Z,4.10
2022-08-05T16:56:00.170Z,4.75
2022-08-05T16:58:27.441Z,3.40
2022-08-05T17:00:55.445Z,3.60
2022-08-05T17:03:22.866Z,3.70
2022-08-05T17:05:54.265Z,4.32
2022-08-05T17:08:36.310Z,4.43
2022-08-05T17:11:17.037Z,3.90
2022-08-05T17:13:45.458Z,4.30
2022-08-05T17:16:33.532Z,4.32
2022-08-05T17:19:02.533Z,5.72
2022-08-05T17:21:35.497Z,5.10
2022-08-05T17:24:19.477Z,5.80
2022-08-05T17:26:58.825Z,5.32
2022-08-05T17:29:33.647Z,4.97
2022-08-05T17:32:11.502Z,3.80
2022-08-05T17:34:44.905Z,3.15
2022-08-05T17:37:39.587Z,3.60
2022-08-05T17:40:10.200Z,3.03
2022-08-05T17:42:41.731Z,2.88
2022-08-05T17:45:21.901Z,2.97
2022-08-05T17:47:55.806Z,2.85
2022-08-05T17:50:30.823Z,3.33
2022-08-05T17:55:37.769Z,2.92
2022-08-05T17:58:12.585Z,3.20
2022-08-05T18:00:45.385Z,3.70
2022-08-05T18:03:56.343Z,3.63
2022-08-05T18:06:12.286Z,2.80
2022-08-05T18:08:46.043Z,3.10
2022-08-05T18:11:24.516Z,3.40
2022-08-05T18:14:03.181Z,2.90
2022-08-05T18:16:33.300Z,2.90
2022-08-05T18:19:00.273Z,2.83
2022-08-05T18:22:06.978Z,3.35
2022-08-05T18:24:15.891Z,3.42
2022-08-05T18:26:43.895Z,3.75
2022-08-05T18:29:11.955Z,4.85
2022-08-05T18:31:45.284Z,6.20
2022-08-05T18:34:13.387Z,6.25
2022-08-05T18:36:43.682Z,8.23
2022-08-05T18:39:42.205Z,6.72
2022-08-05T18:42:04.896Z,5.50
2022-08-05T18:44:48.906Z,4.97
2022-08-05T18:47:22.764Z,4.40
2022-08-05T18:50:15.513Z,4.03
2022-08-05T18:52:50.922Z,4.50
2022-08-05T18:55:22.301Z,6.25
2022-08-05T18:57:53.401Z,5.60
2022-08-05T19:00:29.058Z,6.43
2022-08-05T19:03:03.927Z,5.13
2022-08-05T19:06:11.915Z,5.32
2022-08-05T19:08:22.099Z,4.63
2022-08-05T19:11:04.428Z,5.13
2022-08-05T19:13:35.894Z,5.55
2022-08-05T19:16:25.085Z,4.95
2022-08-05T19:18:56.692Z,5.00
2022-08-05T19:21:25.337Z,4.88
2022-08-05T19:24:05.996Z,5.07
2022-08-05T19:26:36.835Z,5.45
2022-08-05T19:29:21.658Z,5.50
2022-08-05T19:31:51.339Z,5.80
2022-08-05T19:34:18.888Z,5.00
2022-08-05T19:36:45.867Z,5.43
2022-08-05T19:39:17.176Z,5.57
2022-08-05T19:42:07.709Z,5.18
2022-08-05T19:44:35.269Z,5.45
2022-08-05T19:47:04.921Z,5.80
2022-08-05T19:49:37.548Z,5.50
2022-08-05T19:52:30.907Z,5.72
2022-08-05T19:54:52.855Z,5.60
2022-08-05T19:57:20.055Z,5.95
2022-08-05T20:00:08.113Z,7.15
2022-08-05T20:02:39.905Z,6.50
2022-08-05T20:05:09.477Z,6.55
2022-08-05T20:07:45.687Z,6.95
2022-08-05T20:10:19.410Z,7.03
2022-08-05T20:12:49.952Z,6.68
2022-08-05T20:15:23.231Z,5.82
2022-08-05T20:18:32.651Z,6.78
2022-08-05T20:20:57.812Z,6.18
2022-08-05T20:23:40.079Z,6.50
2022-08-05T20:26:17.699Z,7.38
2022-08-05T20:28:50.881Z,6.18
2022-08-05T20:31:21.753Z,5.28
2022-08-05T20:33:51.373Z,4.93
2022-08-05T20:36:21.136Z,4.90
2022-08-05T20:38:54.282Z,4.45
2022-08-05T20:41:44.472Z,4.70
2022-08-05T20:47:03.198Z,4.07
2022-08-05T20:49:37.844Z,4.57
2022-08-05T20:52:08.055Z,5.15
2022-08-05T20:54:43.260Z,6.82
2022-08-05T20:57:42.243Z,8.68
2022-08-05T21:00:20.869Z,6.85
2022-08-05T21:03:07.093Z,7.47
2022-08-05T21:05:53.734Z,6.80
2022-08-05T21:08:26.850Z,6.22
2022-08-05T21:11:01.363Z,6.43
2022-08-05T21:13:48.485Z,6.63
2022-08-05T21:16:29.543Z,7.20
2022-08-05T21:19:00.110Z,6.75
2022-08-05T21:21:39.670Z,7.97
2022-08-05T21:24:12.856Z,7.85
2022-08-05T21:26:42.736Z,7.10
2022-08-05T21:29:16.687Z,6.90
2022-08-05T21:31:45.122Z,6.82
2022-08-05T21:34:12.105Z,7.53
2022-08-05T21:36:39.789Z,6.47
2022-08-05T21:39:14.268Z,6.95
2022-08-05T21:41:52.706Z,6.60
2022-08-05T21:44:32.463Z,7.13
2022-08-05T21:47:00.367Z,6.65
2022-08-05T21:49:48.509Z,7.40
2022-08-05T21:52:27.662Z,6.53
2022-08-05T21:55:06.410Z,6.55
2022-08-05T21:57:42.763Z,7.22
2022-08-05T22:00:11.851Z,6.57
2022-08-05T22:02:42.967Z,6.82
2022-08-05T22:05:12.200Z,7.10
2022-08-05T22:07:59.442Z,6.57
2022-08-05T22:10:28.396Z,6.68
2022-08-05T22:12:59.190Z,6.93
2022-08-05T22:16:02.070Z,7.20
2022-08-05T22:18:25.954Z,7.13
2022-08-05T22:20:54.310Z,6.40
2022-08-05T22:24:00.968Z,5.95
2022-08-05T22:26:50.499Z,6.07
2022-08-05T22:29:26.794Z,7.55
2022-08-05T22:32:03.180Z,7.13
2022-08-05T22:34:33.412Z,6.10
2022-08-05T22:37:03.953Z,5.93
2022-08-05T22:39:34.967Z,5.53
2022-08-05T22:42:11.631Z,5.38
2022-08-05T22:44:48.674Z,5.80
2022-08-05T22:47:29.199Z,6.53
2022-08-05T22:50:20.932Z,5.93
2022-08-05T22:52:51.427Z,5.60
2022-08-05T22:55:21.289Z,5.28
2022-08-05T22:57:53.813Z,6.03
2022-08-05T23:00:24.215Z,6.20
2022-08-05T23:02:53.955Z,6.25
2022-08-05T23:05:22.476Z,6.10
2022-08-05T23:07:51.735Z,5.75
2022-08-05T23:10:23.966Z,5.90
2022-08-05T23:12:55.128Z,6.97
2022-08-05T23:15:29.637Z,4.95
2022-08-05T23:18:03.236Z,5.03
2022-08-05T23:20:32.748Z,5.40
2022-08-05T23:23:05.730Z,6.25
2022-08-05T23:25:53.688Z,6.30
2022-08-05T23:28:29.395Z,6.45
2022-08-05T23:31:15.807Z,5.70
2022-08-05T23:34:06.036Z,8.77
2022-08-05T23:36:40.054Z,8.35
2022-08-05T23:39:32.214Z,7.80
2022-08-05T23:42:08.598Z,7.90
2022-08-05T23:44:42.621Z,10.27
2022-08-05T23:47:15.620Z,10.75
2022-08-05T23:49:45.820Z,8.57
2022-08-05T23:52:35.957Z,11.15
2022-08-05T23:55:17.121Z,15.82
2022-08-05T23:57:44.440Z,13.82
